Time;durP1;ratioP1;P1;durP2;ratioP2;P2;SDS_P1;SDS_P2;PMS_P1;PMS_P2;Temp;Humidity;BMP_temperature;BMP_pressure;BME280_temperature;BME280_humidity;BME280_pressure;Samples;Min_cycle;Max_cycle;Signal;HPM_P1;HPM_P2
2021/03/20 00:01:44;;;;;;;7.10;5.23;;;;;3.30;102315.00;;;;10441753;28;20194;-75
2021/03/20 00:06:50;;;;;;;9.03;5.97;;;;;3.10;102324.00;;;;10424483;28;20198;-75
2021/03/20 00:11:52;;;;;;;9.97;6.23;;;;;3.00;102316.00;;;;10440516;28;20195;-75
2021/03/20 00:16:54;;;;;;;9.03;6.43;;;;;2.90;102323.00;;;;10456914;28;20214;-75
2021/03/20 00:21:56;;;;;;;11.30;7.07;;;;;2.80;102322.00;;;;10440376;28;20221;-75
2021/03/20 00:26:57;;;;;;;14.23;7.87;;;;;2.70;102328.00;;;;10407244;28;20194;-75
2021/03/20 00:32:08;;;;;;;14.57;7.67;;;;;2.70;102323.00;;;;10424992;28;20590;-75
2021/03/20 00:37:12;;;;;;;13.83;8.87;;;;;2.70;102325.00;;;;10423620;28;20210;-75
2021/03/20 00:42:13;;;;;;;15.33;9.13;;;;;2.80;102332.00;;;;10422488;28;20633;-75
2021/03/20 00:47:15;;;;;;;13.93;8.70;;;;;2.90;102325.00;;;;10397978;28;20194;-75
2021/03/20 00:52:17;;;;;;;17.07;9.10;;;;;2.90;102332.00;;;;10398576;28;20230;-75
2021/03/20 00:57:18;;;;;;;16.67;9.30;;;;;2.80;102332.00;;;;10381790;28;20246;-75
2021/03/20 01:02:20;;;;;;;18.07;10.57;;;;;2.80;102333.00;;;;10381089;28;20194;-75
2021/03/20 01:07:23;;;;;;;17.23;10.20;;;;;2.80;102325.00;;;;10365296;28;20183;-75
2021/03/20 01:12:24;;;;;;;14.67;10.50;;;;;2.70;102334.00;;;;10381467;28;20210;-75
2021/03/20 01:17:25;;;;;;;17.67;10.40;;;;;2.60;102333.00;;;;10380569;28;20222;-75
2021/03/20 01:22:27;;;;;;;15.00;10.77;;;;;2.50;102349.00;;;;10395462;28;20225;-75
2021/03/20 01:27:28;;;;;;;16.93;10.63;;;;;2.40;102345.00;;;;10396695;28;20198;-75
2021/03/20 01:32:29;;;;;;;18.33;11.83;;;;;2.30;102345.00;;;;10396920;28;20728;-75
2021/03/20 01:37:31;;;;;;;22.87;12.37;;;;;2.20;102349.00;;;;10364004;28;20219;-75
2021/03/20 01:42:33;;;;;;;19.30;11.00;;;;;2.20;102354.00;;;;10380605;28;20877;-75
2021/03/20 01:47:42;;;;;;;17.67;11.93;;;;;2.10;102356.00;;;;10396202;28;20650;-75
2021/03/20 01:52:45;;;;;;;19.43;12.47;;;;;1.90;102348.00;;;;10396225;28;20197;-75
2021/03/20 01:57:51;;;;;;;20.03;12.60;;;;;1.90;102351.00;;;;10379912;28;20242;-75
2021/03/20 02:02:53;;;;;;;18.50;13.03;;;;;1.80;102335.00;;;;10396190;28;20199;-75
2021/03/20 02:07:56;;;;;;;23.43;13.60;;;;;1.70;102343.00;;;;10363413;28;20193;-75
2021/03/20 02:13:06;;;;;;;24.97;13.77;;;;;1.60;102348.00;;;;10379810;28;20214;-75
2021/03/20 02:18:11;;;;;;;24.27;13.87;;;;;1.60;102342.00;;;;10420845;28;20215;-75
2021/03/20 02:23:33;;;;;;;19.53;13.27;;;;;1.60;102353.00;;;;10386672;28;20190;-75
2021/03/20 02:29:12;;;;;;;21.57;14.20;;;;;1.50;102354.00;;;;10420625;28;20198;-75
2021/03/20 02:34:27;;;;;;;24.97;16.97;;;;;1.40;102356.00;;;;10403567;28;20210;-75
2021/03/20 02:39:41;;;;;;;25.77;16.43;;;;;1.40;102357.00;;;;10387832;28;20207;-75
2021/03/20 02:44:50;;;;;;;20.87;16.53;;;;;1.40;102366.00;;;;10387380;28;20582;-75
2021/03/20 02:49:59;;;;;;;23.33;17.03;;;;;1.40;102359.00;;;;10391969;28;20225;-75
2021/03/20 02:55:11;;;;;;;24.77;16.60;;;;;1.30;102348.00;;;;10459344;28;20190;-75
2021/03/20 03:00:39;;;;;;;27.53;17.57;;;;;1.30;102349.00;;;;10426954;28;20206;-75
2021/03/20 03:05:54;;;;;;;26.50;17.43;;;;;1.30;102346.00;;;;10403637;28;20194;-75
2021/03/20 03:11:02;;;;;;;26.83;17.33;;;;;1.20;102341.00;;;;10443739;28;20190;-75
2021/03/20 03:16:11;;;;;;;24.20;16.17;;;;;1.10;102347.00;;;;10443394;28;20206;-75
2021/03/20 03:21:15;;;;;;;25.90;16.63;;;;;1.00;102343.00;;;;10443351;28;20544;-75
2021/03/20 03:26:28;;;;;;;27.60;17.30;;;;;0.90;102350.00;;;;10442910;28;20194;-75
2021/03/20 03:32:03;;;;;;;32.80;17.30;;;;;0.80;102347.00;;;;10410351;28;20583;-75
2021/03/20 03:37:39;;;;;;;24.47;16.50;;;;;0.70;102347.00;;;;10416817;28;20241;-75
2021/03/20 03:42:41;;;;;;;23.17;15.90;;;;;0.60;102357.00;;;;10401827;28;20207;-75
2021/03/20 03:47:44;;;;;;;26.87;17.70;;;;;0.50;102364.00;;;;10400990;28;20557;-75
2021/03/20 03:52:46;;;;;;;29.47;16.90;;;;;0.40;102377.00;;;;10396313;28;20213;-75
2021/03/20 03:58:10;;;;;;;26.30;17.30;;;;;0.40;102382.00;;;;10442199;28;20210;-75
2021/03/20 04:03:34;;;;;;;32.60;17.37;;;;;0.30;102371.00;;;;10405131;28;20202;-75
2021/03/20 04:09:01;;;;;;;25.93;16.93;;;;;0.20;102377.00;;;;10424530;28;20252;-75
2021/03/20 04:14:21;;;;;;;25.40;17.57;;;;;0.20;102381.00;;;;10424476;28;20254;-75
2021/03/20 04:19:40;;;;;;;29.17;18.40;;;;;0.10;102375.00;;;;10424875;28;20570;-75
2021/03/20 04:25:01;;;;;;;33.37;19.20;;;;;0.10;102381.00;;;;10423757;28;20240;-75
2021/03/20 04:30:09;;;;;;;33.90;19.77;;;;;0.10;102378.00;;;;10407239;28;20241;-75
2021/03/20 04:35:16;;;;;;;30.47;19.37;;;;;0.10;102373.00;;;;10439997;28;20244;-75
2021/03/20 04:40:27;;;;;;;31.97;18.30;;;;;0.00;102368.00;;;;10423117;28;20209;-75
2021/03/20 04:45:38;;;;;;;34.10;19.90;;;;;-0.10;102376.00;;;;10412269;28;20276;-75
2021/03/20 04:50:43;;;;;;;30.57;19.10;;;;;-0.20;102372.00;;;;10365775;28;20199;-75
2021/03/20 04:55:44;;;;;;;32.77;19.57;;;;;-0.30;102375.00;;;;10369137;28;20278;-75
2021/03/20 05:00:50;;;;;;;34.37;20.00;;;;;-0.30;102383.00;;;;10357824;28;20198;-75
2021/03/20 05:05:59;;;;;;;34.80;20.63;;;;;-0.40;102385.00;;;;10341115;28;20230;-74
2021/03/20 05:11:13;;;;;;;29.23;19.03;;;;;-0.50;102392.00;;;;10357068;28;20673;-75
2021/03/20 05:16:18;;;;;;;33.57;20.70;;;;;-0.50;102399.00;;;;10356703;28;20211;-75
2021/03/20 05:21:25;;;;;;;39.07;21.73;;;;;-0.50;102403.00;;;;10356291;28;20187;-75
2021/03/20 05:26:29;;;;;;;38.27;22.03;;;;;-0.60;102408.00;;;;10356889;28;20195;-75
2021/03/20 05:31:32;;;;;;;41.53;22.33;;;;;-0.60;102407.00;;;;10339827;28;20681;-74
2021/03/20 05:36:35;;;;;;;36.13;21.23;;;;;-0.70;102409.00;;;;10355995;28;20211;-74
2021/03/20 05:42:13;;;;;;;38.23;21.30;;;;;-0.70;102405.00;;;;10339751;28;20515;-75
2021/03/20 05:47:49;;;;;;;35.77;20.70;;;;;-0.70;102413.00;;;;10356315;28;20191;-74
2021/03/20 05:53:12;;;;;;;34.50;21.00;;;;;-0.70;102418.00;;;;10388612;28;20194;-74
2021/03/20 05:58:59;;;;;;;39.50;22.27;;;;;-0.70;102422.00;;;;10437483;28;20244;-74
2021/03/20 06:04:22;;;;;;;36.80;22.73;;;;;-0.60;102426.00;;;;10354538;28;20203;-74
2021/03/20 06:09:34;;;;;;;38.97;22.10;;;;;-0.40;102421.00;;;;10379657;28;20728;-75
2021/03/20 06:14:45;;;;;;;37.10;22.03;;;;;-0.30;102413.00;;;;10380247;28;20269;-74
2021/03/20 06:20:13;;;;;;;38.00;24.03;;;;;-0.10;102423.00;;;;10379990;28;20194;-75
2021/03/20 06:25:55;;;;;;;44.07;25.57;;;;;0.20;102422.00;;;;10396433;28;20244;-75
2021/03/20 06:31:28;;;;;;;47.43;29.40;;;;;0.60;102431.00;;;;10399094;28;20685;-75
2021/03/20 06:36:42;;;;;;;39.37;25.90;;;;;0.80;102440.00;;;;10395796;28;20191;-75
2021/03/20 06:41:58;;;;;;;40.00;25.27;;;;;1.10;102451.00;;;;10362978;28;20237;-75
2021/03/20 06:47:01;;;;;;;37.80;24.30;;;;;1.30;102459.00;;;;10371447;28;20215;-75
2021/03/20 06:52:06;;;;;;;39.57;23.93;;;;;1.60;102476.00;;;;10366820;28;20238;-75
2021/03/20 06:57:10;;;;;;;38.60;23.53;;;;;1.90;102481.00;;;;10393559;28;20191;-75
2021/03/20 07:02:38;;;;;;;33.73;23.10;;;;;2.30;102486.00;;;;10359229;28;20199;-75
2021/03/20 07:08:15;;;;;;;30.27;21.07;;;;;2.60;102497.00;;;;10361776;28;20883;-75
2021/03/20 07:13:24;;;;;;;27.50;20.03;;;;;3.20;102493.00;;;;10348650;28;20242;-75
2021/03/20 07:18:35;;;;;;;23.23;17.73;;;;;3.70;102505.00;;;;10364565;28;20191;-75
2021/03/20 07:23:37;;;;;;;23.43;16.53;;;;;4.00;102519.00;;;;10430304;28;20271;-75
2021/03/20 07:28:48;;;;;;;21.97;16.87;;;;;4.30;102510.00;;;;10375714;28;20678;-75
2021/03/20 07:33:54;;;;;;;20.63;16.57;;;;;4.50;102516.00;;;;10418374;28;20187;-75
2021/03/20 07:39:10;;;;;;;18.93;15.13;;;;;4.70;102522.00;;;;10368835;28;20242;-75
2021/03/20 07:44:11;;;;;;;19.10;13.80;;;;;5.00;102518.00;;;;10385351;28;20653;-75
2021/03/20 07:49:31;;;;;;;16.23;12.30;;;;;5.50;102514.00;;;;10351288;28;20218;-75
2021/03/20 07:54:35;;;;;;;16.07;12.53;;;;;5.70;102507.00;;;;10400483;28;20654;-75
2021/03/20 07:59:52;;;;;;;15.80;12.27;;;;;5.80;102515.00;;;;10384104;28;20191;-75
2021/03/20 08:05:12;;;;;;;16.50;11.60;;;;;6.10;102515.00;;;;10400432;28;20209;-75
2021/03/20 08:10:29;;;;;;;15.00;10.87;;;;;6.10;102519.00;;;;10372884;28;20268;-75
2021/03/20 08:15:41;;;;;;;14.47;11.40;;;;;6.50;102520.00;;;;10381613;28;20233;-75
2021/03/20 08:20:56;;;;;;;15.13;11.47;;;;;7.00;102515.00;;;;10382622;28;20195;-75
2021/03/20 08:26:03;;;;;;;15.20;11.53;;;;;7.40;102522.00;;;;10381649;28;20252;-75
2021/03/20 08:31:22;;;;;;;12.47;11.13;;;;;7.60;102515.00;;;;10433736;28;20205;-75
2021/03/20 08:36:59;;;;;;;14.83;11.40;;;;;8.10;102513.00;;;;10380873;28;20577;-75
2021/03/20 08:42:26;;;;;;;13.63;11.33;;;;;8.30;102506.00;;;;10364505;28;20203;-75
2021/03/20 08:47:49;;;;;;;15.37;11.13;;;;;8.80;102489.00;;;;10388993;28;20565;-75
2021/03/20 08:53:05;;;;;;;13.50;11.83;;;;;9.10;102477.00;;;;10355080;28;20576;-75
2021/03/20 08:58:40;;;;;;;12.53;11.23;;;;;9.30;102484.00;;;;10390237;28;20935;-75
2021/03/20 09:03:48;;;;;;;13.63;11.07;;;;;9.40;102483.00;;;;10364014;28;20277;-75
2021/03/20 09:08:56;;;;;;;12.47;10.73;;;;;9.70;102473.00;;;;10392582;28;20906;-75
2021/03/20 09:14:13;;;;;;;14.63;11.40;;;;;10.00;102476.00;;;;10372576;28;20222;-75
2021/03/20 09:19:22;;;;;;;11.07;9.70;;;;;10.40;102472.00;;;;10367251;28;20198;-75
2021/03/20 09:24:27;;;;;;;13.67;8.83;;;;;10.80;102465.00;;;;10384878;28;20225;-75
2021/03/20 09:29:31;;;;;;;12.60;8.20;;;;;10.70;102461.00;;;;10361205;28;20218;-75
2021/03/20 09:34:36;;;;;;;9.80;7.70;;;;;10.70;102458.00;;;;10377267;28;20187;-75
2021/03/20 09:39:53;;;;;;;9.17;7.73;;;;;11.20;102456.00;;;;10355919;28;20606;-76
2021/03/20 09:45:24;;;;;;;10.00;8.37;;;;;11.60;102463.00;;;;10350202;28;20618;-76
2021/03/20 09:50:25;;;;;;;8.80;7.90;;;;;11.70;102464.00;;;;10331626;28;20720;-76
2021/03/20 09:55:30;;;;;;;9.37;7.60;;;;;12.10;102470.00;;;;10356032;28;20225;-76
2021/03/20 10:00:50;;;;;;;8.50;7.60;;;;;12.10;102468.00;;;;10360404;28;20735;-75
2021/03/20 10:06:19;;;;;;;9.57;6.40;;;;;12.60;102468.00;;;;10387923;28;20279;-75
2021/03/20 10:11:50;;;;;;;6.07;5.30;;;;;13.00;102476.00;;;;10370456;28;20210;-74
2021/03/20 10:17:13;;;;;;;5.87;4.77;;;;;13.10;102475.00;;;;10347101;28;20772;-75
2021/03/20 10:22:28;;;;;;;5.33;4.83;;;;;12.70;102472.00;;;;10385083;28;20226;-74
2021/03/20 10:27:34;;;;;;;8.50;5.07;;;;;12.70;102472.00;;;;10385624;28;20289;-74
2021/03/20 10:32:36;;;;;;;5.33;4.83;;;;;12.60;102475.00;;;;10355097;28;20194;-75
2021/03/20 10:37:44;;;;;;;5.47;4.07;;;;;12.50;102464.00;;;;10370027;28;20653;-75
2021/03/20 10:42:49;;;;;;;6.23;5.10;;;;;12.60;102467.00;;;;10369551;28;20195;-76
2021/03/20 10:47:59;;;;;;;5.90;4.93;;;;;12.40;102457.00;;;;10390457;28;20215;-76
2021/03/20 10:53:05;;;;;;;4.13;2.87;;;;;12.60;102460.00;;;;10368020;28;20198;-76
2021/03/20 10:58:12;;;;;;;8.10;3.33;;;;;12.60;102457.00;;;;10392220;28;20558;-76
2021/03/20 11:03:14;;;;;;;5.60;3.83;;;;;12.60;102459.00;;;;10357174;28;20198;-75
2021/03/20 11:08:18;;;;;;;4.40;3.97;;;;;12.90;102453.00;;;;10374569;28;20989;-76
2021/03/20 11:13:30;;;;;;;4.67;3.03;;;;;13.00;102443.00;;;;10379553;28;20279;-75
2021/03/20 11:18:35;;;;;;;4.83;2.83;;;;;12.90;102434.00;;;;10367902;28;20520;-75
2021/03/20 11:23:37;;;;;;;3.30;2.97;;;;;12.70;102434.00;;;;10363673;28;20726;-75
2021/03/20 11:28:39;;;;;;;6.47;3.23;;;;;13.00;102432.00;;;;10390835;28;20260;-75
2021/03/20 11:33:42;;;;;;;4.73;3.50;;;;;13.10;102430.00;;;;10380955;28;20199;-75
2021/03/20 11:38:44;;;;;;;4.13;2.83;;;;;13.30;102417.00;;;;10382353;28;20226;-75
2021/03/20 11:44:25;;;;;;;3.97;3.20;;;;;13.40;102417.00;;;;10386744;28;20230;-75
2021/03/20 11:49:49;;;;;;;4.33;2.73;;;;;13.70;102420.00;;;;10412723;28;20191;-75
2021/03/20 11:55:04;;;;;;;4.40;3.73;;;;;13.70;102416.00;;;;10393875;28;20222;-75
2021/03/20 12:00:32;;;;;;;4.43;3.13;;;;;13.50;102417.00;;;;10395889;28;20183;-75
2021/03/20 12:05:37;;;;;;;3.73;3.00;;;;;13.70;102411.00;;;;10390227;28;20886;-75
2021/03/20 12:10:53;;;;;;;4.27;3.33;;;;;14.00;102391.00;;;;10393568;28;20211;-75
2021/03/20 12:15:54;;;;;;;3.47;2.87;;;;;14.00;102386.00;;;;10377264;28;20218;-75
2021/03/20 12:21:04;;;;;;;3.73;2.87;;;;;14.20;102376.00;;;;10378720;28;20190;-76
2021/03/20 12:26:18;;;;;;;3.40;3.10;;;;;14.60;102363.00;;;;10353073;28;20191;-75
2021/03/20 12:31:22;;;;;;;3.57;3.27;;;;;14.70;102359.00;;;;10395754;28;20274;-76
2021/03/20 12:36:26;;;;;;;4.43;3.30;;;;;14.80;102353.00;;;;10369826;28;20780;-76
2021/03/20 12:41:30;;;;;;;3.67;3.37;;;;;14.70;102351.00;;;;10372348;28;20227;-75
2021/03/20 12:46:37;;;;;;;4.60;3.10;;;;;14.30;102341.00;;;;10340104;28;20215;-76
2021/03/20 12:51:39;;;;;;;4.10;2.90;;;;;13.80;102337.00;;;;10360978;28;20195;-75
2021/03/20 12:56:42;;;;;;;5.87;3.20;;;;;14.10;102339.00;;;;10401907;28;20184;-75
2021/03/20 13:01:44;;;;;;;3.47;2.90;;;;;14.60;102333.00;;;;10360329;28;20195;-75
2021/03/20 13:06:46;;;;;;;3.10;2.80;;;;;14.50;102327.00;;;;10396252;28;20249;-75
2021/03/20 13:11:48;;;;;;;3.77;3.10;;;;;14.50;102316.00;;;;10337891;28;20659;-75
2021/03/20 13:16:49;;;;;;;3.60;3.17;;;;;14.30;102311.00;;;;10382623;28;20211;-75
2021/03/20 13:21:50;;;;;;;4.30;3.20;;;;;13.70;102305.00;;;;10392250;28;20191;-75
2021/03/20 13:26:53;;;;;;;3.50;3.00;;;;;13.90;102309.00;;;;10404569;28;20199;-75
2021/03/20 13:31:55;;;;;;;4.50;3.23;;;;;13.90;102302.00;;;;10377588;28;20294;-75
2021/03/20 13:36:57;;;;;;;3.27;2.97;;;;;14.10;102300.00;;;;10385812;28;20218;-75
2021/03/20 13:41:58;;;;;;;14.90;3.17;;;;;14.80;102291.00;;;;10350916;28;20191;-74
2021/03/20 13:47:02;;;;;;;3.67;3.10;;;;;15.20;102289.00;;;;10374639;28;20207;-75
2021/03/20 13:52:04;;;;;;;3.63;3.03;;;;;15.90;102282.00;;;;10393732;28;20186;-74
2021/03/20 13:57:06;;;;;;;3.30;2.80;;;;;16.30;102277.00;;;;10377829;28;20248;-74
2021/03/20 14:02:10;;;;;;;5.77;2.83;;;;;16.50;102268.00;;;;10372468;28;20191;-75
2021/03/20 14:07:50;;;;;;;3.13;2.83;;;;;17.50;102278.00;;;;10361813;28;20199;-75
2021/03/20 14:12:52;;;;;;;3.30;3.00;;;;;18.80;102264.00;;;;10416130;28;20566;-75
2021/03/20 14:17:54;;;;;;;3.42;3.13;;;;;20.80;102263.00;;;;10418123;28;20194;-75
2021/03/20 14:22:55;;;;;;;4.25;3.50;;;;;20.80;102264.00;;;;10400284;28;20270;-75
2021/03/20 14:27:57;;;;;;;4.13;3.30;;;;;19.20;102252.00;;;;10408315;28;20290;-75
2021/03/20 14:32:59;;;;;;;6.50;3.67;;;;;20.90;102245.00;;;;10369489;28;20949;-74
2021/03/20 14:38:03;;;;;;;3.55;3.25;;;;;20.10;102256.00;;;;10389987;28;20305;-75
2021/03/20 14:43:06;;;;;;;4.70;3.60;;;;;19.30;102246.00;;;;10382637;28;20273;-74
2021/03/20 14:48:08;;;;;;;5.37;3.73;;;;;19.90;102249.00;;;;10396771;28;20613;-75
2021/03/20 14:53:10;;;;;;;6.07;3.60;;;;;20.50;102235.00;;;;10390033;28;20191;-75
2021/03/20 14:58:12;;;;;;;3.90;3.50;;;;;18.60;102214.00;;;;10400058;28;20237;-75
2021/03/20 15:03:13;;;;;;;4.17;3.50;;;;;18.90;102206.00;;;;10370331;28;20674;-74
2021/03/20 15:08:19;;;;;;;4.87;4.17;;;;;18.30;102199.00;;;;10408863;28;20599;-74
2021/03/20 15:13:22;;;;;;;6.03;4.78;;;;;21.20;102191.00;;;;10404595;28;20211;-74
2021/03/20 15:18:36;;;;;;;6.13;5.32;;;;;18.50;102202.00;;;;10401264;28;20264;-74
2021/03/20 15:23:40;;;;;;;5.40;4.78;;;;;19.30;102190.00;;;;10384927;28;20195;-75
2021/03/20 15:28:45;;;;;;;7.53;5.03;;;;;16.90;102193.00;;;;10394825;28;20624;-75
2021/03/20 15:33:47;;;;;;;6.40;5.17;;;;;16.90;102196.00;;;;10401071;28;20599;-75
2021/03/20 15:38:49;;;;;;;5.93;5.33;;;;;16.10;102203.00;;;;10378168;28;20678;-75
2021/03/20 15:43:50;;;;;;;7.27;5.37;;;;;15.10;102191.00;;;;10373381;28;20197;-75
2021/03/20 15:48:53;;;;;;;5.93;4.87;;;;;13.90;102193.00;;;;10413457;28;20300;-76
2021/03/20 15:53:54;;;;;;;5.07;4.37;;;;;13.00;102194.00;;;;10423661;28;20263;-75
2021/03/20 15:58:56;;;;;;;5.73;5.00;;;;;12.30;102185.00;;;;10375628;28;20241;-75
2021/03/20 16:03:57;;;;;;;6.63;4.60;;;;;11.70;102193.00;;;;10359571;28;20679;-75
2021/03/20 16:08:59;;;;;;;7.57;4.13;;;;;11.50;102188.00;;;;10379866;28;20629;-75
2021/03/20 16:14:01;;;;;;;9.73;6.47;;;;;11.00;102181.00;;;;10383246;28;20215;-75
2021/03/20 16:19:03;;;;;;;8.40;5.33;;;;;10.60;102170.00;;;;10399292;28;20207;-75
2021/03/20 16:24:04;;;;;;;4.40;3.60;;;;;10.40;102167.00;;;;10383285;28;20257;-76
2021/03/20 16:29:06;;;;;;;3.10;2.80;;;;;10.40;102159.00;;;;10399086;28;20210;-75
2021/03/20 16:34:07;;;;;;;4.00;2.67;;;;;10.80;102160.00;;;;10398999;28;20233;-75
2021/03/20 16:39:09;;;;;;;5.57;3.90;;;;;11.00;102152.00;;;;10367039;28;20203;-75
2021/03/20 16:44:30;;;;;;;5.63;5.03;;;;;10.80;102147.00;;;;10391693;28;20198;-75
2021/03/20 16:49:31;;;;;;;9.37;6.73;;;;;10.50;102152.00;;;;10383104;28;20198;-75
2021/03/20 16:54:32;;;;;;;8.43;6.97;;;;;10.40;102155.00;;;;10399008;28;20195;-75
2021/03/20 16:59:34;;;;;;;6.87;6.17;;;;;10.20;102152.00;;;;10382492;28;20211;-75
2021/03/20 17:04:36;;;;;;;8.60;7.70;;;;;10.00;102158.00;;;;10398661;28;20245;-75
2021/03/20 17:09:38;;;;;;;9.03;8.13;;;;;9.90;102146.00;;;;10397934;28;20201;-75
2021/03/20 17:14:39;;;;;;;11.40;9.47;;;;;9.70;102155.00;;;;10381048;28;20270;-75
2021/03/20 17:19:40;;;;;;;10.67;9.57;;;;;9.40;102156.00;;;;10365143;28;20249;-75
2021/03/20 17:24:42;;;;;;;10.47;9.47;;;;;9.10;102144.00;;;;10365387;28;20195;-75
2021/03/20 17:29:44;;;;;;;13.20;10.90;;;;;9.00;102149.00;;;;10364957;28;20199;-75
2021/03/20 17:34:45;;;;;;;10.83;9.73;;;;;8.80;102153.00;;;;10396924;28;20198;-75
2021/03/20 17:39:46;;;;;;;11.80;9.87;;;;;8.50;102160.00;;;;10415068;28;20297;-75
2021/03/20 17:44:48;;;;;;;13.50;8.77;;;;;8.30;102152.00;;;;10380310;28;20657;-75
2021/03/20 17:49:50;;;;;;;13.43;8.93;;;;;8.00;102156.00;;;;10396857;28;20209;-75
2021/03/20 17:54:51;;;;;;;10.90;7.33;;;;;7.80;102164.00;;;;10397308;28;20191;-75
2021/03/20 17:59:52;;;;;;;11.47;7.60;;;;;7.60;102162.00;;;;10356422;28;20221;-75
2021/03/20 18:04:54;;;;;;;10.47;8.30;;;;;7.40;102163.00;;;;10339207;28;20227;-75
2021/03/20 18:09:55;;;;;;;10.37;8.30;;;;;7.20;102162.00;;;;10355647;28;20647;-75
2021/03/20 18:14:56;;;;;;;10.00;8.07;;;;;7.00;102174.00;;;;10405882;28;20207;-75
2021/03/20 18:19:57;;;;;;;13.17;8.57;;;;;6.90;102175.00;;;;10380517;28;20613;-75
2021/03/20 18:25:11;;;;;;;9.70;7.70;;;;;6.80;102174.00;;;;10364723;28;20249;-75
2021/03/20 18:30:23;;;;;;;11.13;8.83;;;;;6.60;102175.00;;;;10347334;28;20226;-75
2021/03/20 18:35:26;;;;;;;9.13;8.20;;;;;6.50;102176.00;;;;10364336;28;20499;-75
2021/03/20 18:40:32;;;;;;;10.10;8.67;;;;;6.40;102181.00;;;;10380205;28;20211;-75
2021/03/20 18:45:33;;;;;;;16.63;10.37;;;;;6.20;102172.00;;;;10411653;28;20242;-75
2021/03/20 18:50:37;;;;;;;13.40;9.60;;;;;6.10;102178.00;;;;10395519;28;20245;-75
2021/03/20 18:55:39;;;;;;;13.40;10.13;;;;;6.00;102175.00;;;;10395924;28;20738;-75
2021/03/20 19:00:42;;;;;;;12.70;9.83;;;;;5.90;102179.00;;;;10403232;28;20211;-74
2021/03/20 19:05:45;;;;;;;13.27;10.17;;;;;5.80;102181.00;;;;10387362;28;20647;-75
2021/03/20 19:10:46;;;;;;;11.53;10.07;;;;;5.70;102179.00;;;;10386869;28;20198;-75
2021/03/20 19:15:48;;;;;;;12.00;8.57;;;;;5.70;102171.00;;;;10402326;28;20269;-75
2021/03/20 19:20:51;;;;;;;9.13;7.43;;;;;5.60;102181.00;;;;10385585;28;20211;-75
2021/03/20 19:25:55;;;;;;;11.73;8.77;;;;;5.60;102178.00;;;;10370282;28;20245;-75
2021/03/20 19:31:02;;;;;;;14.30;8.87;;;;;5.40;102175.00;;;;10401449;28;20203;-75
2021/03/20 19:36:06;;;;;;;12.63;9.00;;;;;5.30;102171.00;;;;10385231;28;20198;-75
2021/03/20 19:41:08;;;;;;;11.67;8.87;;;;;5.10;102180.00;;;;10385638;28;20261;-75
2021/03/20 19:46:15;;;;;;;15.80;10.00;;;;;5.10;102166.00;;;;10379448;28;20803;-75
2021/03/20 19:51:17;;;;;;;15.70;9.27;;;;;4.90;102169.00;;;;10442031;28;20661;-75
2021/03/20 19:56:23;;;;;;;9.50;8.37;;;;;4.90;102174.00;;;;10426355;28;20183;-75
2021/03/20 20:01:28;;;;;;;11.60;8.90;;;;;4.80;102169.00;;;;10424852;28;20908;-75
2021/03/20 20:06:32;;;;;;;10.70;8.77;;;;;4.90;102161.00;;;;10441183;28;20833;-75
2021/03/20 20:11:33;;;;;;;10.27;8.67;;;;;5.00;102162.00;;;;10368649;28;20581;-75
2021/03/20 20:16:35;;;;;;;10.70;9.13;;;;;5.20;102167.00;;;;10384036;28;20207;-75
2021/03/20 20:21:37;;;;;;;12.60;9.43;;;;;5.30;102167.00;;;;10368055;28;20578;-75
2021/03/20 20:26:47;;;;;;;12.57;9.13;;;;;5.40;102168.00;;;;10366754;28;20199;-75
2021/03/20 20:31:50;;;;;;;11.30;8.67;;;;;5.50;102169.00;;;;10399513;28;20191;-74
2021/03/20 20:36:52;;;;;;;12.87;9.07;;;;;5.60;102165.00;;;;10399659;28;20538;-75
2021/03/20 20:41:54;;;;;;;10.63;8.67;;;;;5.60;102165.00;;;;10382592;28;20191;-75
2021/03/20 20:47:03;;;;;;;10.03;8.63;;;;;5.60;102180.00;;;;10382275;28;20653;-75
2021/03/20 20:52:08;;;;;;;10.77;9.27;;;;;5.70;102179.00;;;;10389886;28;20200;-75
2021/03/20 20:57:10;;;;;;;10.87;9.13;;;;;5.70;102178.00;;;;10456265;28;20287;-75
2021/03/20 21:02:11;;;;;;;12.83;9.67;;;;;5.70;102192.00;;;;10406386;28;20198;-75
2021/03/20 21:07:12;;;;;;;12.77;8.93;;;;;5.80;102171.00;;;;10406489;28;20195;-75
2021/03/20 21:12:14;;;;;;;11.30;10.10;;;;;5.80;102171.00;;;;10421870;28;20198;-75
2021/03/20 21:17:16;;;;;;;13.97;10.20;;;;;5.80;102160.00;;;;10397887;28;20222;-75
2021/03/20 21:22:17;;;;;;;12.50;10.13;;;;;5.80;102164.00;;;;10380881;28;20195;-75
2021/03/20 21:27:26;;;;;;;12.70;10.77;;;;;5.80;102163.00;;;;10382177;28;20206;-75
2021/03/20 21:32:28;;;;;;;12.80;9.97;;;;;5.90;102173.00;;;;10339692;28;20215;-75
2021/03/20 21:37:30;;;;;;;14.20;10.40;;;;;5.90;102169.00;;;;10356133;28;20302;-75
2021/03/20 21:42:32;;;;;;;12.77;10.93;;;;;5.90;102160.00;;;;10374700;28;20217;-75
2021/03/20 21:47:34;;;;;;;11.87;10.03;;;;;5.90;102162.00;;;;10396770;28;20183;-75
2021/03/20 21:52:37;;;;;;;12.73;9.47;;;;;5.90;102174.00;;;;10414816;28;20179;-75
2021/03/20 21:57:53;;;;;;;15.27;9.70;;;;;5.90;102174.00;;;;10396387;28;20214;-75
2021/03/20 22:02:55;;;;;;;12.20;10.20;;;;;5.80;102166.00;;;;10355511;28;20196;-75
2021/03/20 22:07:57;;;;;;;14.17;10.03;;;;;5.80;102164.00;;;;10356145;28;20594;-75
2021/03/20 22:12:58;;;;;;;16.97;11.40;;;;;5.80;102168.00;;;;10330007;28;20276;-75
2021/03/20 22:18:01;;;;;;;17.50;10.87;;;;;5.80;102163.00;;;;10379769;28;20203;-75
2021/03/20 22:23:04;;;;;;;18.30;12.20;;;;;5.80;102155.00;;;;10396034;28;20265;-75
2021/03/20 22:28:15;;;;;;;18.43;11.80;;;;;5.80;102141.00;;;;10412421;28;20202;-75
2021/03/20 22:33:17;;;;;;;18.73;12.10;;;;;5.90;102132.00;;;;10367864;28;20253;-75
2021/03/20 22:38:19;;;;;;;17.90;12.67;;;;;5.90;102119.00;;;;10404340;28;20211;-75
2021/03/20 22:43:20;;;;;;;17.23;11.87;;;;;5.80;102125.00;;;;10371266;28;20203;-75
2021/03/20 22:48:22;;;;;;;17.27;12.80;;;;;5.80;102135.00;;;;10403469;28;20187;-75
2021/03/20 22:53:24;;;;;;;20.40;13.13;;;;;5.80;102112.00;;;;10362940;28;20199;-74
2021/03/20 22:58:40;;;;;;;17.90;13.00;;;;;5.90;102126.00;;;;10361901;28;20219;-75
2021/03/20 23:03:49;;;;;;;17.37;11.57;;;;;5.90;102125.00;;;;10350144;28;20244;-75
2021/03/20 23:08:53;;;;;;;17.47;12.50;;;;;5.90;102118.00;;;;10370091;28;20191;-75
2021/03/20 23:13:55;;;;;;;23.57;13.07;;;;;5.80;102120.00;;;;10402513;28;20215;-75
2021/03/20 23:18:58;;;;;;;18.57;12.93;;;;;5.80;102117.00;;;;10402434;28;20207;-75
2021/03/20 23:24:01;;;;;;;20.13;13.37;;;;;5.60;102118.00;;;;10402831;28;20221;-75
2021/03/20 23:29:05;;;;;;;26.77;15.93;;;;;5.60;102116.00;;;;10385694;28;20198;-75
2021/03/20 23:34:06;;;;;;;24.97;15.40;;;;;5.50;102099.00;;;;10402480;28;20194;-75
2021/03/20 23:39:10;;;;;;;27.40;16.87;;;;;5.50;102088.00;;;;10385604;28;20664;-75
2021/03/20 23:44:18;;;;;;;29.80;16.93;;;;;5.50;102081.00;;;;10401049;28;20214;-75
2021/03/20 23:49:21;;;;;;;26.70;16.90;;;;;5.50;102075.00;;;;10386522;28;20191;-75
2021/03/20 23:54:22;;;;;;;26.10;17.00;;;;;5.50;102072.00;;;;10410142;28;20197;-75
2021/03/20 23:59:23;;;;;;;27.97;17.60;;;;;5.50;102057.00;;;;10394976;28;20211;-75
